sensor_id;sensor_type;location;lat;lon;timestamp;P1;durP1;ratioP1;P2;durP2;ratioP2
44116;SDS011;29781;49.480;8.512;2024-02-21T00:00:04;17.63;;;5.78;;
44116;SDS011;29781;49.480;8.512;2024-02-21T00:02:30;17.30;;;6.07;;
44116;SDS011;29781;49.480;8.512;2024-02-21T00:04:55;18.98;;;5.57;;
44116;SDS011;29781;49.480;8.512;2024-02-21T00:07:21;13.68;;;5.13;;
44116;SDS011;29781;49.480;8.512;2024-02-21T00:09:46;16.15;;;5.30;;
44116;SDS011;29781;49.480;8.512;2024-02-21T00:12:12;19.65;;;5.88;;
44116;SDS011;29781;49.480;8.512;2024-02-21T00:14:38;12.68;;;5.50;;
44116;SDS011;29781;49.480;8.512;2024-02-21T00:17:05;17.15;;;5.35;;
44116;SDS011;29781;49.480;8.512;2024-02-21T00:19:31;20.25;;;6.40;;
44116;SDS011;29781;49.480;8.512;2024-02-21T00:21:56;21.25;;;5.30;;
44116;SDS011;29781;49.480;8.512;2024-02-21T00:24:22;19.77;;;5.53;;
44116;SDS011;29781;49.480;8.512;2024-02-21T00:26:47;18.60;;;5.80;;
44116;SDS011;29781;49.480;8.512;2024-02-21T00:29:13;11.93;;;5.43;;
44116;SDS011;29781;49.480;8.512;2024-02-21T00:31:38;16.92;;;5.47;;
44116;SDS011;29781;49.480;8.512;2024-02-21T00:34:04;23.40;;;7.35;;
44116;SDS011;29781;49.480;8.512;2024-02-21T00:36:29;14.32;;;5.20;;
44116;SDS011;29781;49.480;8.512;2024-02-21T00:38:55;17.23;;;5.38;;
44116;SDS011;29781;49.480;8.512;2024-02-21T00:41:20;13.45;;;5.15;;
44116;SDS011;29781;49.480;8.512;2024-02-21T00:43:46;11.85;;;4.32;;
44116;SDS011;29781;49.480;8.512;2024-02-21T00:46:13;17.70;;;6.30;;
44116;SDS011;29781;49.480;8.512;2024-02-21T00:48:39;16.05;;;5.18;;
44116;SDS011;29781;49.480;8.512;2024-02-21T00:51:04;12.70;;;5.13;;
44116;SDS011;29781;49.480;8.512;2024-02-21T00:53:30;12.15;;;5.20;;
44116;SDS011;29781;49.480;8.512;2024-02-21T00:55:55;13.23;;;5.50;;
44116;SDS011;29781;49.480;8.512;2024-02-21T00:58:21;14.02;;;5.93;;
44116;SDS011;29781;49.480;8.512;2024-02-21T01:00:47;21.02;;;7.38;;
44116;SDS011;29781;49.480;8.512;2024-02-21T01:03:13;17.80;;;7.13;;
44116;SDS011;29781;49.480;8.512;2024-02-21T01:05:38;19.85;;;6.53;;
44116;SDS011;29781;49.480;8.512;2024-02-21T01:08:04;21.20;;;7.30;;
44116;SDS011;29781;49.480;8.512;2024-02-21T01:10:30;15.68;;;6.68;;
44116;SDS011;29781;49.480;8.512;2024-02-21T01:12:55;14.70;;;6.55;;
44116;SDS011;29781;49.480;8.512;2024-02-21T01:15:21;16.45;;;6.13;;
44116;SDS011;29781;49.480;8.512;2024-02-21T01:17:47;17.77;;;6.60;;
44116;SDS011;29781;49.480;8.512;2024-02-21T01:20:14;19.02;;;6.63;;
44116;SDS011;29781;49.480;8.512;2024-02-21T01:22:40;13.35;;;6.20;;
44116;SDS011;29781;49.480;8.512;2024-02-21T01:25:06;17.98;;;6.57;;
44116;SDS011;29781;49.480;8.512;2024-02-21T01:27:32;12.65;;;6.45;;
44116;SDS011;29781;49.480;8.512;2024-02-21T01:29:57;19.05;;;6.20;;
44116;SDS011;29781;49.480;8.512;2024-02-21T01:32:22;18.17;;;6.93;;
44116;SDS011;29781;49.480;8.512;2024-02-21T01:34:49;15.80;;;6.53;;
44116;SDS011;29781;49.480;8.512;2024-02-21T01:37:15;19.13;;;6.85;;
44116;SDS011;29781;49.480;8.512;2024-02-21T01:39:40;16.60;;;6.85;;
44116;SDS011;29781;49.480;8.512;2024-02-21T01:42:06;17.67;;;7.15;;
44116;SDS011;29781;49.480;8.512;2024-02-21T01:44:32;16.02;;;6.45;;
44116;SDS011;29781;49.480;8.512;2024-02-21T01:46:58;14.80;;;6.15;;
44116;SDS011;29781;49.480;8.512;2024-02-21T01:49:23;14.68;;;5.68;;
44116;SDS011;29781;49.480;8.512;2024-02-21T01:51:49;19.38;;;6.63;;
44116;SDS011;29781;49.480;8.512;2024-02-21T01:54:16;15.30;;;5.43;;
44116;SDS011;29781;49.480;8.512;2024-02-21T01:56:43;14.52;;;5.53;;
44116;SDS011;29781;49.480;8.512;2024-02-21T01:59:09;13.57;;;5.45;;
44116;SDS011;29781;49.480;8.512;2024-02-21T02:01:36;17.50;;;6.13;;
44116;SDS011;29781;49.480;8.512;2024-02-21T02:04:02;12.40;;;5.18;;
44116;SDS011;29781;49.480;8.512;2024-02-21T02:06:30;12.85;;;5.40;;
44116;SDS011;29781;49.480;8.512;2024-02-21T02:08:56;14.02;;;5.90;;
44116;SDS011;29781;49.480;8.512;2024-02-21T02:11:22;16.05;;;6.00;;
44116;SDS011;29781;49.480;8.512;2024-02-21T02:13:47;18.42;;;6.78;;
44116;SDS011;29781;49.480;8.512;2024-02-21T02:16:13;12.45;;;5.82;;
44116;SDS011;29781;49.480;8.512;2024-02-21T02:18:38;10.10;;;5.78;;
44116;SDS011;29781;49.480;8.512;2024-02-21T02:21:04;16.05;;;5.90;;
44116;SDS011;29781;49.480;8.512;2024-02-21T02:23:38;12.57;;;5.85;;
44116;SDS011;29781;49.480;8.512;2024-02-21T02:26:06;14.68;;;5.68;;
44116;SDS011;29781;49.480;8.512;2024-02-21T02:28:32;13.73;;;5.30;;
44116;SDS011;29781;49.480;8.512;2024-02-21T02:30:58;15.68;;;5.82;;
44116;SDS011;29781;49.480;8.512;2024-02-21T02:33:23;14.13;;;5.53;;
44116;SDS011;29781;49.480;8.512;2024-02-21T02:35:49;15.50;;;5.35;;
44116;SDS011;29781;49.480;8.512;2024-02-21T02:38:14;16.10;;;5.78;;
44116;SDS011;29781;49.480;8.512;2024-02-21T02:40:40;13.82;;;5.75;;
44116;SDS011;29781;49.480;8.512;2024-02-21T02:43:06;14.88;;;5.55;;
44116;SDS011;29781;49.480;8.512;2024-02-21T02:45:32;21.58;;;7.10;;
44116;SDS011;29781;49.480;8.512;2024-02-21T02:47:58;16.33;;;6.80;;
44116;SDS011;29781;49.480;8.512;2024-02-21T02:50:24;21.23;;;7.38;;
44116;SDS011;29781;49.480;8.512;2024-02-21T02:52:51;15.50;;;6.63;;
44116;SDS011;29781;49.480;8.512;2024-02-21T02:55:17;18.15;;;6.65;;
44116;SDS011;29781;49.480;8.512;2024-02-21T02:57:43;15.45;;;7.68;;
44116;SDS011;29781;49.480;8.512;2024-02-21T03:00:09;18.65;;;6.80;;
44116;SDS011;29781;49.480;8.512;2024-02-21T03:05:03;12.00;;;6.50;;
44116;SDS011;29781;49.480;8.512;2024-02-21T03:07:38;14.75;;;6.40;;
44116;SDS011;29781;49.480;8.512;2024-02-21T03:10:04;12.52;;;6.07;;
44116;SDS011;29781;49.480;8.512;2024-02-21T03:12:29;14.93;;;6.82;;
44116;SDS011;29781;49.480;8.512;2024-02-21T03:14:55;15.77;;;5.88;;
44116;SDS011;29781;49.480;8.512;2024-02-21T03:17:21;14.85;;;5.43;;
44116;SDS011;29781;49.480;8.512;2024-02-21T03:19:46;15.35;;;6.63;;
44116;SDS011;29781;49.480;8.512;2024-02-21T03:22:13;15.75;;;5.55;;
44116;SDS011;29781;49.480;8.512;2024-02-21T03:24:39;16.95;;;6.28;;
44116;SDS011;29781;49.480;8.512;2024-02-21T03:27:04;11.82;;;5.78;;
44116;SDS011;29781;49.480;8.512;2024-02-21T03:29:30;17.90;;;5.88;;
44116;SDS011;29781;49.480;8.512;2024-02-21T03:31:55;11.90;;;5.82;;
44116;SDS011;29781;49.480;8.512;2024-02-21T03:34:21;16.52;;;5.88;;
44116;SDS011;29781;49.480;8.512;2024-02-21T03:36:46;15.02;;;5.95;;
44116;SDS011;29781;49.480;8.512;2024-02-21T03:39:12;19.98;;;6.68;;
44116;SDS011;29781;49.480;8.512;2024-02-21T03:41:37;12.10;;;5.97;;
44116;SDS011;29781;49.480;8.512;2024-02-21T03:44:03;17.73;;;6.65;;
44116;SDS011;29781;49.480;8.512;2024-02-21T03:46:30;13.13;;;6.40;;
44116;SDS011;29781;49.480;8.512;2024-02-21T03:48:56;14.00;;;5.47;;
44116;SDS011;29781;49.480;8.512;2024-02-21T03:51:22;13.73;;;5.32;;
44116;SDS011;29781;49.480;8.512;2024-02-21T03:53:47;13.85;;;5.65;;
44116;SDS011;29781;49.480;8.512;2024-02-21T03:56:13;14.65;;;5.30;;
44116;SDS011;29781;49.480;8.512;2024-02-21T03:58:38;12.18;;;5.75;;
44116;SDS011;29781;49.480;8.512;2024-02-21T04:01:04;15.13;;;5.70;;
44116;SDS011;29781;49.480;8.512;2024-02-21T04:03:30;16.48;;;5.38;;
44116;SDS011;29781;49.480;8.512;2024-02-21T04:05:56;18.95;;;6.38;;
44116;SDS011;29781;49.480;8.512;2024-02-21T04:08:22;14.75;;;5.15;;
44116;SDS011;29781;49.480;8.512;2024-02-21T04:10:48;12.65;;;5.38;;
44116;SDS011;29781;49.480;8.512;2024-02-21T04:13:13;13.05;;;4.95;;
44116;SDS011;29781;49.480;8.512;2024-02-21T04:15:39;12.05;;;5.63;;
44116;SDS011;29781;49.480;8.512;2024-02-21T04:18:04;21.67;;;5.95;;
44116;SDS011;29781;49.480;8.512;2024-02-21T04:20:30;13.75;;;5.25;;
44116;SDS011;29781;49.480;8.512;2024-02-21T04:22:56;14.77;;;4.93;;
44116;SDS011;29781;49.480;8.512;2024-02-21T04:25:22;15.68;;;5.50;;
44116;SDS011;29781;49.480;8.512;2024-02-21T04:27:47;12.52;;;5.10;;
44116;SDS011;29781;49.480;8.512;2024-02-21T04:30:13;16.55;;;5.43;;
44116;SDS011;29781;49.480;8.512;2024-02-21T04:32:39;16.50;;;5.53;;
44116;SDS011;29781;49.480;8.512;2024-02-21T04:35:05;15.75;;;5.35;;
44116;SDS011;29781;49.480;8.512;2024-02-21T04:37:32;14.77;;;5.15;;
44116;SDS011;29781;49.480;8.512;2024-02-21T04:39:57;12.60;;;4.93;;
44116;SDS011;29781;49.480;8.512;2024-02-21T04:42:23;11.48;;;4.93;;
44116;SDS011;29781;49.480;8.512;2024-02-21T04:44:48;16.60;;;5.60;;
44116;SDS011;29781;49.480;8.512;2024-02-21T04:47:14;11.95;;;5.32;;
44116;SDS011;29781;49.480;8.512;2024-02-21T04:49:39;14.75;;;5.57;;
44116;SDS011;29781;49.480;8.512;2024-02-21T04:52:05;14.88;;;5.70;;
44116;SDS011;29781;49.480;8.512;2024-02-21T04:54:30;13.75;;;6.38;;
44116;SDS011;29781;49.480;8.512;2024-02-21T04:56:56;17.05;;;6.75;;
44116;SDS011;29781;49.480;8.512;2024-02-21T04:59:21;14.50;;;5.88;;
44116;SDS011;29781;49.480;8.512;2024-02-21T05:01:47;18.67;;;6.05;;
44116;SDS011;29781;49.480;8.512;2024-02-21T05:04:12;15.00;;;6.10;;
44116;SDS011;29781;49.480;8.512;2024-02-21T05:06:38;14.65;;;6.95;;
44116;SDS011;29781;49.480;8.512;2024-02-21T05:09:05;17.00;;;6.60;;
44116;SDS011;29781;49.480;8.512;2024-02-21T05:11:31;19.10;;;6.93;;
44116;SDS011;29781;49.480;8.512;2024-02-21T05:13:57;20.30;;;6.40;;
44116;SDS011;29781;49.480;8.512;2024-02-21T05:16:22;15.50;;;6.18;;
44116;SDS011;29781;49.480;8.512;2024-02-21T05:18:48;12.43;;;6.20;;
44116;SDS011;29781;49.480;8.512;2024-02-21T05:21:13;14.45;;;6.13;;
44116;SDS011;29781;49.480;8.512;2024-02-21T05:23:39;15.40;;;5.57;;
44116;SDS011;29781;49.480;8.512;2024-02-21T05:26:05;14.95;;;5.55;;
44116;SDS011;29781;49.480;8.512;2024-02-21T05:28:31;15.65;;;6.22;;
44116;SDS011;29781;49.480;8.512;2024-02-21T05:30:57;16.85;;;6.82;;
44116;SDS011;29781;49.480;8.512;2024-02-21T05:33:23;14.60;;;6.63;;
44116;SDS011;29781;49.480;8.512;2024-02-21T05:35:49;15.45;;;6.40;;
44116;SDS011;29781;49.480;8.512;2024-02-21T05:38:14;12.68;;;5.82;;
44116;SDS011;29781;49.480;8.512;2024-02-21T05:40:40;14.38;;;5.82;;
44116;SDS011;29781;49.480;8.512;2024-02-21T05:43:09;17.02;;;6.18;;
44116;SDS011;29781;49.480;8.512;2024-02-21T05:45:34;17.52;;;6.18;;
44116;SDS011;29781;49.480;8.512;2024-02-21T05:48:00;12.55;;;6.10;;
44116;SDS011;29781;49.480;8.512;2024-02-21T05:50:27;16.70;;;6.55;;
44116;SDS011;29781;49.480;8.512;2024-02-21T05:52:56;13.98;;;5.82;;
44116;SDS011;29781;49.480;8.512;2024-02-21T05:55:22;14.77;;;5.32;;
44116;SDS011;29781;49.480;8.512;2024-02-21T05:57:47;14.88;;;5.90;;
44116;SDS011;29781;49.480;8.512;2024-02-21T06:00:13;19.17;;;6.55;;
44116;SDS011;29781;49.480;8.512;2024-02-21T06:02:40;15.93;;;5.88;;
44116;SDS011;29781;49.480;8.512;2024-02-21T06:05:06;13.48;;;6.10;;
44116;SDS011;29781;49.480;8.512;2024-02-21T06:07:35;14.55;;;6.68;;
44116;SDS011;29781;49.480;8.512;2024-02-21T06:10:03;15.18;;;5.78;;
44116;SDS011;29781;49.480;8.512;2024-02-21T06:12:29;14.63;;;5.45;;
44116;SDS011;29781;49.480;8.512;2024-02-21T06:14:54;18.10;;;6.95;;
44116;SDS011;29781;49.480;8.512;2024-02-21T06:17:20;14.73;;;6.15;;
44116;SDS011;29781;49.480;8.512;2024-02-21T06:19:45;11.43;;;5.57;;
44116;SDS011;29781;49.480;8.512;2024-02-21T06:22:11;17.52;;;6.35;;
44116;SDS011;29781;49.480;8.512;2024-02-21T06:24:37;17.40;;;6.60;;
44116;SDS011;29781;49.480;8.512;2024-02-21T06:27:03;15.45;;;6.50;;
44116;SDS011;29781;49.480;8.512;2024-02-21T06:29:30;21.15;;;6.80;;
44116;SDS011;29781;49.480;8.512;2024-02-21T06:31:56;15.82;;;6.05;;
44116;SDS011;29781;49.480;8.512;2024-02-21T06:34:22;14.70;;;6.53;;
44116;SDS011;29781;49.480;8.512;2024-02-21T06:36:48;15.57;;;6.28;;
44116;SDS011;29781;49.480;8.512;2024-02-21T06:39:13;15.07;;;6.65;;
44116;SDS011;29781;49.480;8.512;2024-02-21T06:41:39;15.93;;;6.38;;
44116;SDS011;29781;49.480;8.512;2024-02-21T06:44:05;12.15;;;5.97;;
44116;SDS011;29781;49.480;8.512;2024-02-21T06:46:31;12.85;;;5.97;;
44116;SDS011;29781;49.480;8.512;2024-02-21T06:48:59;16.27;;;6.63;;
44116;SDS011;29781;49.480;8.512;2024-02-21T06:51:25;20.20;;;7.45;;
44116;SDS011;29781;49.480;8.512;2024-02-21T06:53:51;14.63;;;6.85;;
44116;SDS011;29781;49.480;8.512;2024-02-21T06:56:17;15.93;;;7.28;;
44116;SDS011;29781;49.480;8.512;2024-02-21T06:58:43;21.00;;;7.68;;
44116;SDS011;29781;49.480;8.512;2024-02-21T07:01:08;18.00;;;7.03;;
44116;SDS011;29781;49.480;8.512;2024-02-21T07:03:35;15.68;;;7.68;;
44116;SDS011;29781;49.480;8.512;2024-02-21T07:06:00;13.00;;;7.38;;
44116;SDS011;29781;49.480;8.512;2024-02-21T07:08:26;18.77;;;7.63;;
44116;SDS011;29781;49.480;8.512;2024-02-21T07:10:52;14.25;;;6.72;;
44116;SDS011;29781;49.480;8.512;2024-02-21T07:13:17;20.77;;;7.82;;
44116;SDS011;29781;49.480;8.512;2024-02-21T07:15:43;23.83;;;7.55;;
44116;SDS011;29781;49.480;8.512;2024-02-21T07:18:08;15.13;;;6.85;;
44116;SDS011;29781;49.480;8.512;2024-02-21T07:20:34;16.48;;;7.65;;
44116;SDS011;29781;49.480;8.512;2024-02-21T07:23:01;14.88;;;6.95;;
44116;SDS011;29781;49.480;8.512;2024-02-21T07:25:27;16.38;;;6.90;;
44116;SDS011;29781;49.480;8.512;2024-02-21T07:27:53;17.73;;;8.20;;
44116;SDS011;29781;49.480;8.512;2024-02-21T07:30:18;14.25;;;7.20;;
44116;SDS011;29781;49.480;8.512;2024-02-21T07:32:44;14.95;;;6.93;;
44116;SDS011;29781;49.480;8.512;2024-02-21T07:35:09;19.00;;;7.70;;
44116;SDS011;29781;49.480;8.512;2024-02-21T07:37:36;21.52;;;7.63;;
44116;SDS011;29781;49.480;8.512;2024-02-21T07:40:03;19.08;;;6.95;;
44116;SDS011;29781;49.480;8.512;2024-02-21T07:42:30;17.10;;;7.30;;
44116;SDS011;29781;49.480;8.512;2024-02-21T07:44:56;19.42;;;7.97;;
44116;SDS011;29781;49.480;8.512;2024-02-21T07:47:21;18.33;;;7.75;;
44116;SDS011;29781;49.480;8.512;2024-02-21T07:49:48;15.70;;;8.13;;
44116;SDS011;29781;49.480;8.512;2024-02-21T07:52:14;18.02;;;7.50;;
44116;SDS011;29781;49.480;8.512;2024-02-21T07:54:40;23.27;;;7.93;;
44116;SDS011;29781;49.480;8.512;2024-02-21T07:57:06;15.52;;;7.50;;
44116;SDS011;29781;49.480;8.512;2024-02-21T07:59:32;19.45;;;7.30;;
44116;SDS011;29781;49.480;8.512;2024-02-21T08:01:58;14.02;;;6.63;;
44116;SDS011;29781;49.480;8.512;2024-02-21T08:04:24;19.52;;;7.25;;
44116;SDS011;29781;49.480;8.512;2024-02-21T08:06:53;16.45;;;7.55;;
44116;SDS011;29781;49.480;8.512;2024-02-21T08:09:20;16.42;;;7.35;;
44116;SDS011;29781;49.480;8.512;2024-02-21T08:11:49;17.60;;;7.47;;
44116;SDS011;29781;49.480;8.512;2024-02-21T08:14:15;19.50;;;7.80;;
44116;SDS011;29781;49.480;8.512;2024-02-21T08:16:41;16.85;;;7.50;;
44116;SDS011;29781;49.480;8.512;2024-02-21T08:19:07;16.20;;;7.90;;
44116;SDS011;29781;49.480;8.512;2024-02-21T08:21:33;21.42;;;7.53;;
44116;SDS011;29781;49.480;8.512;2024-02-21T08:23:58;21.02;;;8.10;;
44116;SDS011;29781;49.480;8.512;2024-02-21T08:26:24;17.73;;;7.40;;
44116;SDS011;29781;49.480;8.512;2024-02-21T08:28:53;15.18;;;7.22;;
44116;SDS011;29781;49.480;8.512;2024-02-21T08:31:19;11.30;;;6.70;;
44116;SDS011;29781;49.480;8.512;2024-02-21T08:33:45;17.63;;;6.60;;
44116;SDS011;29781;49.480;8.512;2024-02-21T08:36:29;15.60;;;7.07;;
44116;SDS011;29781;49.480;8.512;2024-02-21T08:38:55;16.17;;;6.95;;
44116;SDS011;29781;49.480;8.512;2024-02-21T08:41:21;16.20;;;7.30;;
44116;SDS011;29781;49.480;8.512;2024-02-21T08:43:48;17.83;;;6.93;;
44116;SDS011;29781;49.480;8.512;2024-02-21T08:46:15;16.15;;;6.78;;
44116;SDS011;29781;49.480;8.512;2024-02-21T08:48:40;18.13;;;6.53;;
44116;SDS011;29781;49.480;8.512;2024-02-21T08:51:06;17.17;;;6.88;;
44116;SDS011;29781;49.480;8.512;2024-02-21T08:53:31;14.82;;;7.50;;
44116;SDS011;29781;49.480;8.512;2024-02-21T08:55:57;12.40;;;6.78;;
44116;SDS011;29781;49.480;8.512;2024-02-21T08:58:23;17.35;;;7.15;;
44116;SDS011;29781;49.480;8.512;2024-02-21T09:00:50;18.55;;;7.88;;
44116;SDS011;29781;49.480;8.512;2024-02-21T09:03:16;14.98;;;7.00;;
44116;SDS011;29781;49.480;8.512;2024-02-21T09:05:42;16.88;;;6.63;;
44116;SDS011;29781;49.480;8.512;2024-02-21T09:08:08;17.50;;;7.05;;
44116;SDS011;29781;49.480;8.512;2024-02-21T09:10:34;17.75;;;6.53;;
44116;SDS011;29781;49.480;8.512;2024-02-21T09:12:59;12.27;;;6.00;;
44116;SDS011;29781;49.480;8.512;2024-02-21T09:15:25;13.73;;;6.45;;
44116;SDS011;29781;49.480;8.512;2024-02-21T09:17:51;15.88;;;6.90;;
44116;SDS011;29781;49.480;8.512;2024-02-21T09:20:17;19.60;;;6.68;;
44116;SDS011;29781;49.480;8.512;2024-02-21T09:22:43;20.58;;;6.85;;
44116;SDS011;29781;49.480;8.512;2024-02-21T09:25:08;16.67;;;7.00;;
44116;SDS011;29781;49.480;8.512;2024-02-21T09:27:36;15.88;;;6.10;;
44116;SDS011;29781;49.480;8.512;2024-02-21T09:30:03;11.45;;;5.75;;
44116;SDS011;29781;49.480;8.512;2024-02-21T09:32:30;14.02;;;6.78;;
44116;SDS011;29781;49.480;8.512;2024-02-21T09:34:55;13.52;;;5.35;;
44116;SDS011;29781;49.480;8.512;2024-02-21T09:37:21;16.30;;;6.13;;
44116;SDS011;29781;49.480;8.512;2024-02-21T09:39:46;16.17;;;6.38;;
44116;SDS011;29781;49.480;8.512;2024-02-21T09:42:12;16.50;;;6.63;;
44116;SDS011;29781;49.480;8.512;2024-02-21T09:44:42;15.30;;;6.65;;
44116;SDS011;29781;49.480;8.512;2024-02-21T09:47:12;14.40;;;6.35;;
44116;SDS011;29781;49.480;8.512;2024-02-21T09:49:47;14.75;;;5.70;;
44116;SDS011;29781;49.480;8.512;2024-02-21T09:52:13;17.00;;;6.38;;
44116;SDS011;29781;49.480;8.512;2024-02-21T09:54:41;12.68;;;5.45;;
44116;SDS011;29781;49.480;8.512;2024-02-21T09:57:09;16.95;;;5.75;;
44116;SDS011;29781;49.480;8.512;2024-02-21T09:59:36;14.77;;;4.88;;
44116;SDS011;29781;49.480;8.512;2024-02-21T10:02:02;14.80;;;5.00;;
44116;SDS011;29781;49.480;8.512;2024-02-21T10:04:29;13.23;;;4.65;;
44116;SDS011;29781;49.480;8.512;2024-02-21T10:06:55;15.40;;;5.28;;
44116;SDS011;29781;49.480;8.512;2024-02-21T10:09:25;11.25;;;4.50;;
44116;SDS011;29781;49.480;8.512;2024-02-21T10:12:10;11.90;;;4.50;;
44116;SDS011;29781;49.480;8.512;2024-02-21T10:14:36;11.82;;;4.00;;
44116;SDS011;29781;49.480;8.512;2024-02-21T10:17:02;11.32;;;4.57;;
44116;SDS011;29781;49.480;8.512;2024-02-21T10:19:30;11.32;;;4.43;;
44116;SDS011;29781;49.480;8.512;2024-02-21T10:21:59;11.80;;;4.35;;
44116;SDS011;29781;49.480;8.512;2024-02-21T10:24:33;12.00;;;4.85;;
44116;SDS011;29781;49.480;8.512;2024-02-21T10:26:59;9.85;;;4.28;;
44116;SDS011;29781;49.480;8.512;2024-02-21T10:29:30;11.57;;;4.57;;
44116;SDS011;29781;49.480;8.512;2024-02-21T10:32:09;13.43;;;4.82;;
44116;SDS011;29781;49.480;8.512;2024-02-21T10:34:36;16.83;;;4.55;;
44116;SDS011;29781;49.480;8.512;2024-02-21T10:37:04;10.93;;;4.00;;
44116;SDS011;29781;49.480;8.512;2024-02-21T10:39:34;15.23;;;3.75;;
44116;SDS011;29781;49.480;8.512;2024-02-21T10:42:01;9.43;;;4.03;;
44116;SDS011;29781;49.480;8.512;2024-02-21T10:44:31;10.18;;;3.72;;
44116;SDS011;29781;49.480;8.512;2024-02-21T10:46:57;12.02;;;4.50;;
44116;SDS011;29781;49.480;8.512;2024-02-21T10:49:24;10.48;;;3.83;;
44116;SDS011;29781;49.480;8.512;2024-02-21T10:51:50;10.82;;;3.55;;
44116;SDS011;29781;49.480;8.512;2024-02-21T10:56:55;8.65;;;3.47;;
44116;SDS011;29781;49.480;8.512;2024-02-21T10:59:23;9.73;;;3.10;;
44116;SDS011;29781;49.480;8.512;2024-02-21T11:01:51;8.95;;;3.25;;
44116;SDS011;29781;49.480;8.512;2024-02-21T11:04:17;9.90;;;3.30;;
44116;SDS011;29781;49.480;8.512;2024-02-21T11:06:43;9.10;;;2.50;;
44116;SDS011;29781;49.480;8.512;2024-02-21T11:09:10;7.13;;;2.70;;
44116;SDS011;29781;49.480;8.512;2024-02-21T11:11:39;15.70;;;3.20;;
44116;SDS011;29781;49.480;8.512;2024-02-21T11:14:09;9.10;;;3.00;;
44116;SDS011;29781;49.480;8.512;2024-02-21T11:16:44;13.30;;;3.53;;
44116;SDS011;29781;49.480;8.512;2024-02-21T11:19:24;7.80;;;2.90;;
44116;SDS011;29781;49.480;8.512;2024-02-21T11:21:51;8.32;;;3.25;;
44116;SDS011;29781;49.480;8.512;2024-02-21T11:24:28;12.30;;;2.88;;
44116;SDS011;29781;49.480;8.512;2024-02-21T11:26:55;12.68;;;3.35;;
44116;SDS011;29781;49.480;8.512;2024-02-21T11:29:39;8.52;;;2.70;;
44116;SDS011;29781;49.480;8.512;2024-02-21T11:32:16;12.23;;;3.35;;
44116;SDS011;29781;49.480;8.512;2024-02-21T11:34:58;12.30;;;4.10;;
44116;SDS011;29781;49.480;8.512;2024-02-21T11:37:27;9.48;;;3.10;;
44116;SDS011;29781;49.480;8.512;2024-02-21T11:39:54;12.90;;;3.92;;
44116;SDS011;29781;49.480;8.512;2024-02-21T11:42:20;9.40;;;3.30;;
44116;SDS011;29781;49.480;8.512;2024-02-21T11:44:45;8.10;;;3.38;;
44116;SDS011;29781;49.480;8.512;2024-02-21T11:47:11;13.90;;;3.88;;
44116;SDS011;29781;49.480;8.512;2024-02-21T11:49:43;7.13;;;3.42;;
44116;SDS011;29781;49.480;8.512;2024-02-21T11:52:14;6.70;;;2.97;;
44116;SDS011;29781;49.480;8.512;2024-02-21T11:54:44;10.40;;;3.70;;
44116;SDS011;29781;49.480;8.512;2024-02-21T11:57:10;11.30;;;3.58;;
44116;SDS011;29781;49.480;8.512;2024-02-21T11:59:36;8.35;;;3.00;;
44116;SDS011;29781;49.480;8.512;2024-02-21T12:02:02;11.07;;;3.38;;
44116;SDS011;29781;49.480;8.512;2024-02-21T12:04:28;8.10;;;2.97;;
44116;SDS011;29781;49.480;8.512;2024-02-21T12:06:56;10.02;;;3.85;;
44116;SDS011;29781;49.480;8.512;2024-02-21T12:09:23;9.80;;;3.20;;
44116;SDS011;29781;49.480;8.512;2024-02-21T12:11:58;7.22;;;3.17;;
44116;SDS011;29781;49.480;8.512;2024-02-21T12:14:25;9.75;;;3.47;;
44116;SDS011;29781;49.480;8.512;2024-02-21T12:16:53;13.68;;;3.85;;
44116;SDS011;29781;49.480;8.512;2024-02-21T12:19:19;7.70;;;2.83;;
44116;SDS011;29781;49.480;8.512;2024-02-21T12:21:45;13.30;;;3.30;;
44116;SDS011;29781;49.480;8.512;2024-02-21T12:24:17;9.48;;;3.22;;
44116;SDS011;29781;49.480;8.512;2024-02-21T12:26:52;9.40;;;3.08;;
44116;SDS011;29781;49.480;8.512;2024-02-21T12:29:19;13.25;;;3.25;;
44116;SDS011;29781;49.480;8.512;2024-02-21T12:31:45;5.45;;;2.65;;
44116;SDS011;29781;49.480;8.512;2024-02-21T12:34:10;12.60;;;3.03;;
44116;SDS011;29781;49.480;8.512;2024-02-21T12:36:45;9.32;;;2.85;;
44116;SDS011;29781;49.480;8.512;2024-02-21T12:39:14;7.93;;;2.70;;
44116;SDS011;29781;49.480;8.512;2024-02-21T12:41:40;7.80;;;2.25;;
44116;SDS011;29781;49.480;8.512;2024-02-21T12:44:07;8.57;;;2.47;;
44116;SDS011;29781;49.480;8.512;2024-02-21T12:46:33;7.15;;;3.15;;
44116;SDS011;29781;49.480;8.512;2024-02-21T12:49:02;8.88;;;3.25;;
44116;SDS011;29781;49.480;8.512;2024-02-21T12:51:29;9.05;;;3.03;;
44116;SDS011;29781;49.480;8.512;2024-02-21T12:53:55;5.90;;;3.00;;
44116;SDS011;29781;49.480;8.512;2024-02-21T12:56:21;6.80;;;2.85;;
44116;SDS011;29781;49.480;8.512;2024-02-21T12:58:47;8.55;;;2.90;;
44116;SDS011;29781;49.480;8.512;2024-02-21T13:01:12;8.40;;;3.10;;
44116;SDS011;29781;49.480;8.512;2024-02-21T13:03:38;10.30;;;2.85;;
44116;SDS011;29781;49.480;8.512;2024-02-21T13:06:04;8.98;;;2.92;;
44116;SDS011;29781;49.480;8.512;2024-02-21T13:08:32;9.43;;;2.50;;
44116;SDS011;29781;49.480;8.512;2024-02-21T13:10:59;9.30;;;2.80;;
44116;SDS011;29781;49.480;8.512;2024-02-21T13:13:25;6.35;;;2.70;;
44116;SDS011;29781;49.480;8.512;2024-02-21T13:15:50;8.57;;;2.95;;
44116;SDS011;29781;49.480;8.512;2024-02-21T13:18:15;11.52;;;3.22;;
44116;SDS011;29781;49.480;8.512;2024-02-21T13:20:41;9.77;;;2.70;;
44116;SDS011;29781;49.480;8.512;2024-02-21T13:23:06;8.57;;;3.13;;
44116;SDS011;29781;49.480;8.512;2024-02-21T13:25:32;7.10;;;2.70;;
44116;SDS011;29781;49.480;8.512;2024-02-21T13:27:58;11.80;;;3.38;;
44116;SDS011;29781;49.480;8.512;2024-02-21T13:30:23;8.13;;;3.42;;
44116;SDS011;29781;49.480;8.512;2024-02-21T13:32:50;7.40;;;3.08;;
44116;SDS011;29781;49.480;8.512;2024-02-21T13:35:15;9.50;;;2.92;;
44116;SDS011;29781;49.480;8.512;2024-02-21T13:37:41;7.93;;;2.92;;
44116;SDS011;29781;49.480;8.512;2024-02-21T13:40:07;12.15;;;2.63;;
44116;SDS011;29781;49.480;8.512;2024-02-21T13:42:38;8.40;;;3.35;;
44116;SDS011;29781;49.480;8.512;2024-02-21T13:45:04;8.38;;;2.92;;
44116;SDS011;29781;49.480;8.512;2024-02-21T13:47:31;10.73;;;3.17;;
44116;SDS011;29781;49.480;8.512;2024-02-21T13:50:01;8.43;;;2.90;;
44116;SDS011;29781;49.480;8.512;2024-02-21T13:52:29;7.82;;;2.58;;
44116;SDS011;29781;49.480;8.512;2024-02-21T13:54:55;6.10;;;2.85;;
44116;SDS011;29781;49.480;8.512;2024-02-21T13:57:21;9.15;;;2.28;;
44116;SDS011;29781;49.480;8.512;2024-02-21T13:59:46;6.72;;;2.78;;
44116;SDS011;29781;49.480;8.512;2024-02-21T14:02:12;6.80;;;2.70;;
44116;SDS011;29781;49.480;8.512;2024-02-21T14:04:38;16.30;;;2.80;;
44116;SDS011;29781;49.480;8.512;2024-02-21T14:07:03;7.53;;;2.88;;
44116;SDS011;29781;49.480;8.512;2024-02-21T14:09:29;9.93;;;3.15;;
44116;SDS011;29781;49.480;8.512;2024-02-21T14:11:55;7.80;;;2.60;;
44116;SDS011;29781;49.480;8.512;2024-02-21T14:14:20;9.15;;;2.80;;
44116;SDS011;29781;49.480;8.512;2024-02-21T14:16:46;8.05;;;2.90;;
44116;SDS011;29781;49.480;8.512;2024-02-21T14:19:13;5.10;;;2.55;;
44116;SDS011;29781;49.480;8.512;2024-02-21T14:21:39;8.60;;;3.70;;
44116;SDS011;29781;49.480;8.512;2024-02-21T14:24:05;6.68;;;2.53;;
44116;SDS011;29781;49.480;8.512;2024-02-21T14:26:31;7.22;;;2.80;;
44116;SDS011;29781;49.480;8.512;2024-02-21T14:28:57;4.85;;;2.42;;
44116;SDS011;29781;49.480;8.512;2024-02-21T14:31:22;17.40;;;3.50;;
44116;SDS011;29781;49.480;8.512;2024-02-21T14:33:48;11.88;;;2.83;;
44116;SDS011;29781;49.480;8.512;2024-02-21T14:36:13;10.57;;;2.92;;